createdAt,value
2018-10-03T00:00:16.967Z,81.8
2018-10-03T00:01:17.010Z,82.1
2018-10-03T00:02:16.270Z,82.1
2018-10-03T00:03:16.530Z,81.9
2018-10-03T00:04:16.796Z,81.9
2018-10-03T00:05:17.070Z,81.7
2018-10-03T00:06:16.328Z,81.9
2018-10-03T00:07:16.597Z,82.0
2018-10-03T00:08:16.879Z,81.7
2018-10-03T00:09:17.157Z,81.7
2018-10-03T00:10:16.435Z,81.6
2018-10-03T00:11:16.482Z,82.1
2018-10-03T00:12:16.748Z,81.7
2018-10-03T00:13:17.025Z,81.8
2018-10-03T00:14:16.294Z,82.0
2018-10-03T00:15:16.555Z,81.9
2018-10-03T00:16:16.824Z,82.0
2018-10-03T00:17:17.099Z,82.0
2018-10-03T00:18:16.372Z,82.1
2018-10-03T00:19:16.637Z,82.0
2018-10-03T00:20:16.987Z,82.0
2018-10-03T00:21:16.972Z,82.0
2018-10-03T00:22:17.237Z,82.0
2018-10-03T00:23:16.608Z,82.2
2018-10-03T00:24:16.882Z,82.2
2018-10-03T00:25:17.151Z,82.0
2018-10-03T00:26:16.421Z,82.0
2018-10-03T00:27:16.687Z,82.2
2018-10-03T00:28:16.955Z,82.2
2018-10-03T00:29:17.239Z,82.1
2018-10-03T00:30:16.511Z,82.2
2018-10-03T00:31:16.576Z,82.2
2018-10-03T00:32:16.848Z,82.2
2018-10-03T00:33:17.119Z,82.4
2018-10-03T00:34:16.396Z,82.5
2018-10-03T00:35:16.677Z,82.7
2018-10-03T00:36:16.941Z,82.7
2018-10-03T00:37:17.211Z,83.0
2018-10-03T00:38:16.485Z,82.8
2018-10-03T00:39:16.747Z,82.6
2018-10-03T00:40:17.034Z,82.4
2018-10-03T00:41:17.224Z,82.8
2018-10-03T00:42:16.495Z,82.6
2018-10-03T00:43:16.761Z,82.4
2018-10-03T00:44:17.028Z,82.6
2018-10-03T00:45:16.302Z,82.6
2018-10-03T00:46:16.565Z,82.7
2018-10-03T00:47:16.840Z,82.7
2018-10-03T00:48:17.110Z,82.8
2018-10-03T00:49:16.376Z,82.6
2018-10-03T00:50:16.661Z,82.5
2018-10-03T00:51:16.687Z,82.4
2018-10-03T00:52:16.951Z,82.4
2018-10-03T00:53:17.217Z,82.6
2018-10-03T00:54:16.482Z,82.6
2018-10-03T00:55:16.756Z,82.3
2018-10-03T00:56:17.023Z,82.4
2018-10-03T00:57:16.293Z,82.2
2018-10-03T00:58:16.566Z,82.3
2018-10-03T00:59:16.836Z,82.6
2018-10-03T01:00:17.140Z,82.8
2018-10-03T01:01:17.165Z,83.0
2018-10-03T01:02:16.434Z,83.6
2018-10-03T01:03:16.699Z,83.1
2018-10-03T01:04:16.966Z,83.3
2018-10-03T01:05:17.240Z,83.0
2018-10-03T01:06:16.506Z,83.1
2018-10-03T01:07:16.790Z,82.9
2018-10-03T01:08:17.060Z,83.2
2018-10-03T01:09:16.340Z,83.5
2018-10-03T01:10:16.622Z,83.3
2018-10-03T01:11:16.662Z,82.9
2018-10-03T01:12:16.938Z,82.9
2018-10-03T01:13:17.214Z,83.1
2018-10-03T01:14:16.491Z,82.9
2018-10-03T01:15:16.759Z,82.9
2018-10-03T01:16:17.029Z,82.8
2018-10-03T01:17:16.296Z,82.8
2018-10-03T01:18:16.563Z,82.8
2018-10-03T01:19:16.827Z,82.8
2018-10-03T01:20:17.337Z,82.9
2018-10-03T01:21:17.147Z,82.9
2018-10-03T01:22:16.429Z,83.2
2018-10-03T01:23:16.691Z,82.8
2018-10-03T01:24:16.961Z,83.0
2018-10-03T01:25:17.251Z,83.5
2018-10-03T01:26:16.521Z,83.2
2018-10-03T01:27:16.790Z,82.6
2018-10-03T01:28:17.062Z,82.8
2018-10-03T01:29:16.335Z,82.7
2018-10-03T01:30:16.609Z,82.7
2018-10-03T01:31:16.664Z,82.7
2018-10-03T01:32:16.937Z,82.8
2018-10-03T01:33:17.213Z,82.9
2018-10-03T01:34:16.488Z,82.8
2018-10-03T01:35:16.762Z,83.2
2018-10-03T01:36:17.034Z,83.2
2018-10-03T01:37:16.306Z,82.7
2018-10-03T01:38:16.743Z,82.5
2018-10-03T01:39:17.040Z,82.7
2018-10-03T01:40:16.367Z,83.1
2018-10-03T01:41:16.409Z,83.5
2018-10-03T01:42:16.683Z,83.4
2018-10-03T01:43:16.948Z,83.5
2018-10-03T01:44:17.222Z,83.5
2018-10-03T01:45:16.510Z,83.4
2018-10-03T01:46:16.778Z,83.2
2018-10-03T01:47:17.055Z,83.0
2018-10-03T01:48:16.332Z,83.2
2018-10-03T01:49:16.609Z,83.2
2018-10-03T01:50:16.899Z,83.3
2018-10-03T01:51:16.940Z,83.4
2018-10-03T01:52:17.205Z,83.3
2018-10-03T01:53:16.471Z,83.3
2018-10-03T01:54:16.742Z,84.1
2018-10-03T01:55:17.032Z,83.7
2018-10-03T01:56:16.309Z,83.7
2018-10-03T01:57:16.591Z,83.6
2018-10-03T01:58:16.858Z,83.5
2018-10-03T01:59:17.128Z,83.6
2018-10-03T02:00:16.429Z,83.6
2018-10-03T02:01:16.443Z,83.8
2018-10-03T02:02:16.713Z,83.9
2018-10-03T02:03:16.975Z,84.2
2018-10-03T02:04:17.253Z,84.2
2018-10-03T02:05:16.526Z,84.2
2018-10-03T02:06:16.794Z,84.4
2018-10-03T02:07:17.072Z,84.3
2018-10-03T02:08:16.360Z,84.6
2018-10-03T02:09:16.638Z,84.8
2018-10-03T02:10:16.468Z,84.7
2018-10-03T02:11:16.508Z,84.6
2018-10-03T02:12:16.785Z,84.7
2018-10-03T02:13:17.059Z,84.8
2018-10-03T02:14:16.336Z,85.0
2018-10-03T02:15:16.612Z,85.0
2018-10-03T02:16:16.895Z,85.4
2018-10-03T02:17:17.168Z,85.6
2018-10-03T02:18:16.445Z,85.3
2018-10-03T02:19:16.709Z,85.4
2018-10-03T02:20:16.982Z,85.3
2018-10-03T02:21:17.021Z,85.3
2018-10-03T02:22:16.294Z,85.5
2018-10-03T02:23:16.565Z,85.5
2018-10-03T02:24:16.880Z,85.4
2018-10-03T02:25:17.490Z,85.4
2018-10-03T02:26:16.758Z,85.6
2018-10-03T02:27:17.038Z,85.6
2018-10-03T02:28:16.303Z,85.8
2018-10-03T02:29:16.575Z,85.6
2018-10-03T02:30:16.865Z,85.6
2018-10-03T02:31:17.225Z,85.9
2018-10-03T02:32:16.502Z,85.5
2018-10-03T02:33:16.793Z,85.5
2018-10-03T02:34:17.060Z,85.6
2018-10-03T02:35:16.340Z,85.6
2018-10-03T02:36:16.610Z,85.7
2018-10-03T02:37:17.150Z,85.8
2018-10-03T02:38:16.424Z,85.8
2018-10-03T02:39:16.698Z,86.0
2018-10-03T02:40:16.987Z,86.1
2018-10-03T02:41:17.036Z,85.9
2018-10-03T02:42:16.309Z,85.8
2018-10-03T02:43:16.585Z,85.9
2018-10-03T02:44:16.864Z,85.9
2018-10-03T02:45:17.147Z,86.3
2018-10-03T02:46:16.429Z,86.2
2018-10-03T02:47:16.709Z,86.1
2018-10-03T02:48:16.984Z,86.0
2018-10-03T02:49:17.267Z,86.1
2018-10-03T02:50:16.578Z,86.2
2018-10-03T02:51:16.601Z,86.2
2018-10-03T02:52:16.895Z,86.2
2018-10-03T02:53:17.188Z,86.1
2018-10-03T02:54:16.458Z,86.2
2018-10-03T02:55:16.731Z,86.2
2018-10-03T02:56:17.008Z,86.1
2018-10-03T02:57:16.274Z,86.0
2018-10-03T02:58:16.555Z,86.0
2018-10-03T02:59:16.830Z,86.1
2018-10-03T03:00:17.125Z,85.9
2018-10-03T03:01:17.186Z,85.9
2018-10-03T03:02:16.456Z,85.9
2018-10-03T03:03:16.729Z,85.8
2018-10-03T03:04:17.005Z,85.9
2018-10-03T03:05:16.294Z,86.0
2018-10-03T03:06:16.577Z,85.9
2018-10-03T03:07:16.857Z,86.0
2018-10-03T03:08:17.132Z,85.9
2018-10-03T03:09:16.419Z,86.0
2018-10-03T03:10:16.698Z,85.9
2018-10-03T03:11:16.748Z,85.9
2018-10-03T03:12:17.139Z,85.9
2018-10-03T03:13:16.445Z,85.9
2018-10-03T03:14:16.722Z,85.8
2018-10-03T03:15:17.008Z,85.8
2018-10-03T03:16:16.280Z,86.3
2018-10-03T03:17:16.542Z,85.9
2018-10-03T03:18:16.807Z,85.7
2018-10-03T03:19:17.079Z,85.7
2018-10-03T03:20:16.356Z,85.8
2018-10-03T03:21:16.400Z,86.1
2018-10-03T03:22:16.670Z,86.2
2018-10-03T03:23:16.954Z,85.8
2018-10-03T03:24:17.227Z,85.8
2018-10-03T03:25:16.508Z,85.8
2018-10-03T03:26:16.787Z,85.7
2018-10-03T03:27:17.069Z,85.7
2018-10-03T03:28:16.340Z,85.6
2018-10-03T03:29:16.624Z,85.4
2018-10-03T03:30:16.920Z,85.5
2018-10-03T03:31:16.961Z,85.5
2018-10-03T03:32:17.261Z,85.6
2018-10-03T03:33:16.536Z,85.6
2018-10-03T03:34:16.809Z,85.7
2018-10-03T03:35:17.213Z,85.7
2018-10-03T03:36:16.486Z,85.6
2018-10-03T03:37:16.772Z,85.7
2018-10-03T03:38:17.047Z,85.8
2018-10-03T03:39:16.328Z,85.7
2018-10-03T03:40:16.597Z,85.5
2018-10-03T03:41:16.673Z,85.7
2018-10-03T03:42:16.942Z,85.7
2018-10-03T03:43:17.237Z,85.4
2018-10-03T03:44:16.516Z,85.6
2018-10-03T03:45:16.789Z,85.6
2018-10-03T03:46:17.054Z,85.7
2018-10-03T03:47:16.324Z,85.6
2018-10-03T03:48:16.611Z,85.6
2018-10-03T03:49:16.893Z,85.6
2018-10-03T03:50:17.200Z,85.6
2018-10-03T03:51:17.609Z,85.5
2018-10-03T03:52:16.889Z,85.9
2018-10-03T03:53:17.167Z,85.7
2018-10-03T03:54:16.434Z,85.6
2018-10-03T03:55:16.720Z,85.6
2018-10-03T03:56:17.004Z,85.9
2018-10-03T03:57:16.277Z,85.6
2018-10-03T03:58:16.565Z,85.7
2018-10-03T03:59:16.832Z,85.7
2018-10-03T04:00:17.439Z,86.0
2018-10-03T04:01:17.164Z,85.9
2018-10-03T04:02:16.449Z,85.6
2018-10-03T04:03:16.725Z,85.5
2018-10-03T04:04:17.015Z,85.6
2018-10-03T04:05:16.287Z,85.5
2018-10-03T04:06:16.559Z,85.4
2018-10-03T04:07:16.833Z,85.4
2018-10-03T04:08:17.102Z,85.5
2018-10-03T04:09:16.364Z,85.5
2018-10-03T04:10:16.654Z,85.6
2018-10-03T04:11:16.686Z,85.5
2018-10-03T04:12:16.958Z,85.7
2018-10-03T04:13:17.240Z,85.6
2018-10-03T04:14:16.517Z,85.4
2018-10-03T04:15:16.799Z,85.5
2018-10-03T04:16:17.065Z,85.5
2018-10-03T04:17:16.344Z,85.6
2018-10-03T04:18:16.625Z,85.5
2018-10-03T04:19:16.904Z,85.4
2018-10-03T04:20:17.201Z,85.9
2018-10-03T04:21:17.238Z,85.7
2018-10-03T04:22:16.514Z,85.5
2018-10-03T04:23:16.785Z,85.6
2018-10-03T04:24:17.055Z,85.7
2018-10-03T04:25:16.336Z,86.4
2018-10-03T04:26:16.636Z,86.9
2018-10-03T04:27:16.922Z,87.8
2018-10-03T04:28:17.196Z,87.8
2018-10-03T04:29:16.471Z,88.1
2018-10-03T04:30:16.756Z,88.4
2018-10-03T04:31:16.793Z,88.2
2018-10-03T04:32:17.066Z,88.2
2018-10-03T04:33:16.333Z,89.2
2018-10-03T04:34:16.607Z,88.7
2018-10-03T04:35:16.879Z,88.5
2018-10-03T04:36:17.153Z,88.3
2018-10-03T04:37:16.435Z,88.4
2018-10-03T04:38:16.700Z,88.7
2018-10-03T04:39:16.970Z,88.5
2018-10-03T04:40:17.261Z,89.1
2018-10-03T04:41:16.313Z,88.7
2018-10-03T04:42:16.680Z,88.6
2018-10-03T04:43:17.028Z,88.7
2018-10-03T04:44:16.294Z,88.3
2018-10-03T04:45:16.571Z,88.2
2018-10-03T04:46:16.842Z,88.3
2018-10-03T04:47:17.107Z,88.2
2018-10-03T04:48:16.383Z,88.5
2018-10-03T04:49:16.654Z,88.4
2018-10-03T04:50:16.932Z,88.6
2018-10-03T04:51:16.982Z,89.3
2018-10-03T04:52:17.253Z,88.6
2018-10-03T04:53:16.525Z,88.8
2018-10-03T04:54:16.804Z,88.5
2018-10-03T04:55:17.120Z,88.6
2018-10-03T04:56:16.387Z,89.0
2018-10-03T04:57:16.655Z,88.2
2018-10-03T04:58:16.928Z,88.4
2018-10-03T04:59:17.201Z,88.7
2018-10-03T05:00:16.493Z,89.0
2018-10-03T05:01:16.526Z,88.3
2018-10-03T05:02:16.805Z,88.1
2018-10-03T05:03:17.077Z,88.5
2018-10-03T05:04:16.348Z,88.1
2018-10-03T05:05:16.636Z,87.6
2018-10-03T05:06:16.899Z,87.3
2018-10-03T05:07:17.174Z,87.7
2018-10-03T05:08:16.438Z,87.8
2018-10-03T05:09:16.708Z,88.4
2018-10-03T05:10:16.983Z,88.0
2018-10-03T05:11:17.339Z,87.9
2018-10-03T05:12:16.675Z,87.4
2018-10-03T05:13:16.963Z,87.4
2018-10-03T05:14:17.245Z,87.5
2018-10-03T05:15:16.513Z,87.3
2018-10-03T05:16:16.802Z,87.9
2018-10-03T05:17:17.068Z,87.7
2018-10-03T05:18:16.336Z,87.9
2018-10-03T05:19:16.605Z,87.6
2018-10-03T05:20:16.901Z,87.8
2018-10-03T05:21:16.925Z,87.6
2018-10-03T05:22:17.263Z,88.2
2018-10-03T05:23:16.531Z,88.2
2018-10-03T05:24:16.799Z,87.5
2018-10-03T05:25:17.084Z,87.3
2018-10-03T05:26:16.358Z,87.8
2018-10-03T05:27:16.627Z,87.5
2018-10-03T05:28:16.898Z,87.4
2018-10-03T05:29:17.172Z,87.1
2018-10-03T05:30:16.453Z,87.4
2018-10-03T05:31:16.487Z,87.3
2018-10-03T05:32:16.752Z,87.6
2018-10-03T05:33:17.106Z,87.6
2018-10-03T05:34:16.459Z,88.3
2018-10-03T05:35:16.753Z,87.6
2018-10-03T05:36:17.053Z,87.7
2018-10-03T05:37:16.324Z,87.9
2018-10-03T05:38:16.602Z,88.1
2018-10-03T05:39:16.883Z,88.4
2018-10-03T05:40:17.180Z,88.1
2018-10-03T05:41:17.225Z,88.7
2018-10-03T05:42:16.505Z,88.4
2018-10-03T05:43:16.819Z,88.8
2018-10-03T05:44:17.085Z,88.3
2018-10-03T05:45:16.358Z,88.2
2018-10-03T05:46:16.631Z,88.3
2018-10-03T05:47:16.908Z,88.3
2018-10-03T05:48:17.242Z,88.5
2018-10-03T05:49:16.541Z,88.4
2018-10-03T05:50:16.842Z,88.5
2018-10-03T05:51:16.862Z,88.1
2018-10-03T05:52:17.152Z,88.3
2018-10-03T05:53:16.423Z,88.2
2018-10-03T05:54:16.690Z,88.0
2018-10-03T05:55:16.972Z,87.6
2018-10-03T05:56:17.265Z,87.6
2018-10-03T05:57:16.556Z,87.5
2018-10-03T05:58:16.830Z,88.3
2018-10-03T05:59:17.108Z,88.1
2018-10-03T06:00:16.409Z,87.6
2018-10-03T06:01:16.435Z,87.3
2018-10-03T06:02:16.704Z,87.7
2018-10-03T06:03:16.971Z,87.2
2018-10-03T06:04:17.243Z,87.1
2018-10-03T06:05:16.526Z,87.3
2018-10-03T06:06:16.792Z,87.1
2018-10-03T06:07:17.069Z,87.0
2018-10-03T06:08:16.336Z,87.1
2018-10-03T06:09:16.608Z,87.4
2018-10-03T06:10:16.882Z,87.6
2018-10-03T06:11:16.927Z,87.1
2018-10-03T06:12:17.483Z,86.7
2018-10-03T06:13:16.791Z,86.7
2018-10-03T06:14:17.058Z,86.8
2018-10-03T06:15:16.341Z,86.8
2018-10-03T06:16:16.623Z,86.5
2018-10-03T06:17:16.899Z,86.9
2018-10-03T06:18:17.169Z,86.4
2018-10-03T06:19:16.436Z,86.6
2018-10-03T06:20:16.705Z,86.3
2018-10-03T06:21:16.760Z,86.4
2018-10-03T06:22:17.029Z,86.3
2018-10-03T06:23:16.301Z,86.1
2018-10-03T06:24:16.567Z,86.8
2018-10-03T06:25:16.837Z,86.3
2018-10-03T06:26:17.111Z,86.0
2018-10-03T06:27:16.384Z,86.5
2018-10-03T06:28:16.917Z,86.0
2018-10-03T06:29:17.249Z,86.1
2018-10-03T06:30:16.543Z,86.1
2018-10-03T06:31:17.720Z,86.4
2018-10-03T06:32:16.999Z,86.0
2018-10-03T06:33:16.345Z,85.8
2018-10-03T06:34:16.635Z,85.8
2018-10-03T06:35:16.907Z,86.1
2018-10-03T06:36:17.458Z,86.0
2018-10-03T06:37:16.990Z,86.0
2018-10-03T06:38:16.258Z,86.1
2018-10-03T06:39:16.613Z,86.0
2018-10-03T06:40:16.967Z,86.1
2018-10-03T06:41:17.183Z,86.1
2018-10-03T06:42:16.454Z,86.3
2018-10-03T06:43:16.717Z,86.1
2018-10-03T06:44:17.006Z,86.5
2018-10-03T06:45:16.398Z,86.7
2018-10-03T06:46:16.661Z,87.5
2018-10-03T06:47:16.930Z,87.4
2018-10-03T06:48:17.195Z,87.4
2018-10-03T06:49:16.465Z,87.6
2018-10-03T06:50:16.744Z,87.7
2018-10-03T06:51:16.797Z,88.0
2018-10-03T06:52:17.064Z,88.2
2018-10-03T06:53:16.331Z,88.1
2018-10-03T06:54:16.614Z,88.4
2018-10-03T06:55:16.893Z,88.6
2018-10-03T06:56:17.161Z,88.4
2018-10-03T06:57:16.425Z,88.5
2018-10-03T06:58:16.687Z,88.8
2018-10-03T06:59:16.957Z,89.0
2018-10-03T07:00:17.236Z,89.2
2018-10-03T07:01:16.291Z,89.6
2018-10-03T07:02:16.552Z,90.0
2018-10-03T07:03:16.828Z,90.1
2018-10-03T07:04:17.090Z,90.4
2018-10-03T07:05:16.383Z,90.7
2018-10-03T07:06:16.665Z,91.6
2018-10-03T07:07:16.935Z,92.1
2018-10-03T07:08:17.209Z,91.7
2018-10-03T07:09:16.473Z,92.0
2018-10-03T07:10:16.768Z,91.6
2018-10-03T07:11:16.827Z,92.1
2018-10-03T07:12:17.106Z,92.4
2018-10-03T07:13:16.387Z,92.8
2018-10-03T07:14:16.658Z,92.9
2018-10-03T07:15:16.946Z,93.8
2018-10-03T07:16:17.392Z,93.5
2018-10-03T07:17:16.673Z,93.9
2018-10-03T07:18:16.945Z,93.9
2018-10-03T07:19:17.212Z,93.5
2018-10-03T07:20:16.640Z,93.7
2018-10-03T07:21:16.552Z,93.6
2018-10-03T07:22:16.822Z,93.6
2018-10-03T07:23:17.091Z,94.3
2018-10-03T07:24:16.362Z,94.1
2018-10-03T07:25:16.656Z,93.5
2018-10-03T07:26:17.185Z,93.4
2018-10-03T07:27:16.497Z,94.0
2018-10-03T07:28:16.772Z,94.4
2018-10-03T07:29:17.043Z,93.8
2018-10-03T07:30:16.345Z,93.7
2018-10-03T07:31:16.376Z,93.8
2018-10-03T07:32:16.644Z,93.9
2018-10-03T07:33:16.913Z,93.2
2018-10-03T07:34:17.186Z,93.1
2018-10-03T07:35:16.462Z,92.8
2018-10-03T07:36:16.736Z,93.4
2018-10-03T07:37:17.004Z,92.6
2018-10-03T07:38:16.277Z,92.8
2018-10-03T07:39:16.550Z,92.6
2018-10-03T07:40:16.832Z,92.6
2018-10-03T07:41:16.876Z,92.3
2018-10-03T07:42:17.148Z,92.9
2018-10-03T07:43:16.412Z,92.8
2018-10-03T07:44:16.679Z,92.7
2018-10-03T07:45:16.948Z,92.2
2018-10-03T07:46:17.239Z,92.0
2018-10-03T07:47:16.516Z,92.1
2018-10-03T07:48:16.787Z,92.0
2018-10-03T07:49:17.060Z,92.0
2018-10-03T07:50:16.331Z,93.0
2018-10-03T07:51:16.394Z,93.0
2018-10-03T07:52:16.669Z,91.7
2018-10-03T07:53:16.950Z,91.8
2018-10-03T07:54:17.228Z,91.6
2018-10-03T07:55:16.492Z,91.6
2018-10-03T07:56:16.917Z,91.0
2018-10-03T07:57:17.292Z,91.5
2018-10-03T07:58:16.575Z,90.6
2018-10-03T07:59:16.856Z,90.8
2018-10-03T08:00:17.157Z,90.5
2018-10-03T08:01:17.188Z,90.3
2018-10-03T08:02:16.464Z,90.4
2018-10-03T08:03:16.736Z,91.2
2018-10-03T08:04:17.022Z,90.0
2018-10-03T08:05:16.291Z,90.5
2018-10-03T08:06:16.584Z,90.1
2018-10-03T08:07:16.860Z,90.6
2018-10-03T08:08:17.124Z,89.9
2018-10-03T08:09:16.416Z,90.2
2018-10-03T08:10:16.714Z,89.4
2018-10-03T08:11:16.732Z,90.6
2018-10-03T08:12:17.007Z,90.4
2018-10-03T08:13:16.276Z,90.5
2018-10-03T08:14:16.549Z,89.4
2018-10-03T08:15:16.843Z,89.3
2018-10-03T08:16:17.117Z,88.4
2018-10-03T08:17:16.474Z,88.6
2018-10-03T08:18:16.754Z,88.8
2018-10-03T08:19:17.035Z,90.3
2018-10-03T08:20:16.312Z,89.8
2018-10-03T08:21:16.349Z,88.3
2018-10-03T08:22:16.634Z,89.1
2018-10-03T08:23:16.903Z,88.0
2018-10-03T08:24:17.177Z,88.3
2018-10-03T08:25:16.447Z,87.4
2018-10-03T08:26:16.709Z,87.1
2018-10-03T08:27:16.975Z,87.7
2018-10-03T08:28:17.247Z,87.0
2018-10-03T08:29:16.522Z,87.1
2018-10-03T08:30:16.807Z,87.0
2018-10-03T08:31:16.843Z,86.7
2018-10-03T08:32:17.304Z,86.2
2018-10-03T08:33:16.814Z,85.8
2018-10-03T08:34:17.193Z,86.3
2018-10-03T08:35:16.472Z,85.7
2018-10-03T08:36:16.757Z,85.5
2018-10-03T08:37:17.026Z,85.0
2018-10-03T08:38:16.291Z,85.6
2018-10-03T08:39:16.566Z,85.0
2018-10-03T08:40:16.867Z,85.0
2018-10-03T08:41:16.888Z,85.9
2018-10-03T08:42:17.724Z,86.0
2018-10-03T08:43:16.999Z,85.4
2018-10-03T08:44:16.269Z,84.9
2018-10-03T08:45:16.550Z,84.5
2018-10-03T08:46:16.822Z,85.2
2018-10-03T08:47:17.133Z,85.6
2018-10-03T08:48:16.396Z,84.4
2018-10-03T08:49:16.661Z,84.6
2018-10-03T08:50:16.946Z,83.7
2018-10-03T08:51:16.984Z,83.7
2018-10-03T08:52:17.289Z,83.9
2018-10-03T08:53:16.562Z,83.9
2018-10-03T08:54:16.833Z,83.8
2018-10-03T08:55:17.106Z,83.5
2018-10-03T08:56:16.439Z,83.1
2018-10-03T08:57:16.709Z,83.0
2018-10-03T08:58:17.219Z,83.0
2018-10-03T08:59:16.573Z,82.0
2018-10-03T09:00:16.867Z,82.4
2018-10-03T09:01:16.894Z,83.3
2018-10-03T09:02:17.163Z,82.5
2018-10-03T09:03:16.435Z,82.9
2018-10-03T09:04:16.710Z,82.8
2018-10-03T09:05:16.994Z,83.0
2018-10-03T09:06:16.253Z,83.5
2018-10-03T09:07:16.517Z,83.3
2018-10-03T09:08:16.827Z,83.2
2018-10-03T09:09:17.096Z,83.5
2018-10-03T09:10:16.375Z,83.5
2018-10-03T09:11:16.411Z,84.2
2018-10-03T09:12:16.679Z,84.4
2018-10-03T09:13:16.958Z,84.9
2018-10-03T09:14:17.240Z,83.4
2018-10-03T09:15:16.530Z,83.6
2018-10-03T09:16:16.804Z,82.6
2018-10-03T09:17:17.072Z,82.9
2018-10-03T09:18:16.340Z,83.0
2018-10-03T09:19:16.610Z,82.9
2018-10-03T09:20:16.895Z,82.6
2018-10-03T09:21:17.012Z,82.6
2018-10-03T09:22:16.343Z,82.8
2018-10-03T09:23:16.615Z,83.1
2018-10-03T09:24:16.894Z,83.1
2018-10-03T09:25:17.177Z,82.8
2018-10-03T09:26:16.448Z,83.0
2018-10-03T09:27:16.728Z,83.3
2018-10-03T09:28:17.157Z,83.4
2018-10-03T09:29:16.499Z,83.7
2018-10-03T09:30:16.785Z,84.1
2018-10-03T09:31:16.815Z,84.3
2018-10-03T09:32:17.083Z,83.8
2018-10-03T09:33:16.360Z,84.2
2018-10-03T09:34:16.627Z,84.3
2018-10-03T09:35:16.902Z,84.3
2018-10-03T09:36:17.179Z,84.1
2018-10-03T09:37:16.454Z,84.2
2018-10-03T09:38:16.723Z,83.8
2018-10-03T09:39:16.990Z,83.8
2018-10-03T09:40:17.263Z,83.7
2018-10-03T09:41:16.332Z,83.2
2018-10-03T09:42:16.613Z,83.0
2018-10-03T09:43:16.876Z,83.1
2018-10-03T09:44:17.165Z,83.8
2018-10-03T09:45:16.433Z,83.4
2018-10-03T09:46:16.710Z,83.1
2018-10-03T09:47:16.972Z,83.2
2018-10-03T09:48:17.380Z,83.3
2018-10-03T09:49:16.656Z,82.3
2018-10-03T09:50:16.972Z,82.2
2018-10-03T09:51:16.964Z,82.1
2018-10-03T09:52:17.229Z,82.1
2018-10-03T09:53:16.510Z,82.0
2018-10-03T09:54:16.787Z,82.2
2018-10-03T09:55:17.064Z,82.0
2018-10-03T09:56:16.333Z,80.4
2018-10-03T09:57:16.617Z,80.2
2018-10-03T09:58:16.886Z,79.7
2018-10-03T09:59:17.160Z,79.6
2018-10-03T10:00:16.475Z,79.7
2018-10-03T10:01:16.496Z,79.4
2018-10-03T10:02:16.759Z,79.7
2018-10-03T10:03:17.020Z,79.6
2018-10-03T10:04:16.296Z,80.0
2018-10-03T10:05:16.580Z,79.7
2018-10-03T10:06:16.859Z,79.7
2018-10-03T10:07:17.132Z,79.5
2018-10-03T10:08:16.409Z,79.4
2018-10-03T10:09:16.689Z,79.1
2018-10-03T10:10:17.158Z,79.2
2018-10-03T10:11:17.308Z,80.2
2018-10-03T10:12:16.681Z,79.4
2018-10-03T10:13:16.953Z,79.3
2018-10-03T10:14:17.235Z,78.2
2018-10-03T10:15:16.500Z,77.7
2018-10-03T10:16:16.780Z,77.4
2018-10-03T10:17:17.049Z,77.4
2018-10-03T10:18:16.320Z,76.8
2018-10-03T10:19:16.590Z,76.8
2018-10-03T10:20:16.884Z,77.2
2018-10-03T10:21:16.916Z,77.3
2018-10-03T10:22:17.200Z,76.6
2018-10-03T10:23:16.480Z,76.9
2018-10-03T10:24:16.754Z,76.3
2018-10-03T10:25:17.025Z,76.1
2018-10-03T10:26:16.295Z,76.1
2018-10-03T10:27:16.566Z,76.0
2018-10-03T10:28:16.832Z,75.8
2018-10-03T10:29:17.103Z,75.4
2018-10-03T10:30:16.388Z,75.7
2018-10-03T10:31:16.445Z,74.9
2018-10-03T10:32:16.931Z,75.1
2018-10-03T10:33:16.290Z,75.0
2018-10-03T10:34:16.565Z,74.4
2018-10-03T10:35:16.852Z,74.5
2018-10-03T10:36:17.122Z,74.6
2018-10-03T10:37:16.392Z,73.9
2018-10-03T10:38:16.674Z,73.6
2018-10-03T10:39:16.937Z,73.0
2018-10-03T10:40:17.359Z,73.1
2018-10-03T10:41:17.553Z,73.2
2018-10-03T10:42:16.911Z,72.8
2018-10-03T10:43:17.338Z,72.6
2018-10-03T10:44:16.630Z,71.7
2018-10-03T10:45:16.895Z,72.1
2018-10-03T10:46:17.160Z,72.5
2018-10-03T10:47:16.423Z,71.7
2018-10-03T10:48:17.063Z,71.8
2018-10-03T10:49:16.335Z,71.5
2018-10-03T10:50:16.826Z,71.6
2018-10-03T10:51:16.693Z,71.7
2018-10-03T10:52:16.973Z,71.6
2018-10-03T10:53:17.241Z,72.0
2018-10-03T10:54:16.514Z,72.1
2018-10-03T10:55:16.797Z,72.6
2018-10-03T10:56:17.069Z,72.6
2018-10-03T10:57:16.344Z,72.5
2018-10-03T10:58:16.631Z,72.8
2018-10-03T10:59:16.903Z,72.5
2018-10-03T11:00:17.188Z,72.5
2018-10-03T11:01:17.228Z,72.7
2018-10-03T11:02:16.496Z,72.9
2018-10-03T11:03:16.773Z,72.8
2018-10-03T11:04:17.045Z,73.0
2018-10-03T11:05:16.317Z,73.6
2018-10-03T11:06:16.747Z,73.4
2018-10-03T11:07:17.096Z,72.9
2018-10-03T11:08:16.375Z,73.3
2018-10-03T11:09:16.647Z,72.5
2018-10-03T11:10:16.925Z,72.7
2018-10-03T11:11:16.970Z,72.6
2018-10-03T11:12:17.248Z,71.7
2018-10-03T11:13:16.530Z,71.8
2018-10-03T11:14:16.803Z,71.2
2018-10-03T11:15:17.082Z,71.4
2018-10-03T11:16:16.363Z,71.6
2018-10-03T11:17:16.645Z,71.3
2018-10-03T11:18:16.909Z,71.0
2018-10-03T11:19:17.182Z,71.0
2018-10-03T11:20:16.459Z,70.4
2018-10-03T11:21:16.530Z,70.4
2018-10-03T11:22:16.811Z,69.7
2018-10-03T11:23:17.081Z,69.4
2018-10-03T11:24:16.695Z,69.4
2018-10-03T11:25:17.077Z,69.4
2018-10-03T11:26:16.340Z,68.3
2018-10-03T11:27:16.611Z,68.4
2018-10-03T11:28:16.874Z,67.9
2018-10-03T11:29:17.160Z,68.4
2018-10-03T11:30:16.440Z,68.3
2018-10-03T11:31:16.493Z,68.5
2018-10-03T11:32:17.100Z,68.7
2018-10-03T11:33:16.485Z,67.0
2018-10-03T11:34:16.749Z,65.6
2018-10-03T11:35:17.019Z,65.6
2018-10-03T11:36:16.290Z,65.7
2018-10-03T11:37:16.561Z,65.3
2018-10-03T11:38:16.937Z,65.7
2018-10-03T11:39:16.294Z,65.3
2018-10-03T11:40:16.582Z,65.0
2018-10-03T11:41:16.800Z,65.7
2018-10-03T11:42:17.071Z,64.4
2018-10-03T11:43:16.336Z,63.8
2018-10-03T11:44:16.608Z,63.9
2018-10-03T11:45:16.881Z,64.0
2018-10-03T11:46:17.153Z,63.9
2018-10-03T11:47:16.428Z,63.9
2018-10-03T11:48:16.697Z,63.3
2018-10-03T11:49:16.962Z,63.1
2018-10-03T11:50:17.238Z,63.0
2018-10-03T11:51:16.288Z,63.3
2018-10-03T11:52:16.564Z,64.6
2018-10-03T11:53:16.833Z,64.6
2018-10-03T11:54:17.099Z,64.5
2018-10-03T11:55:16.406Z,64.5
2018-10-03T11:56:16.671Z,64.4
2018-10-03T11:57:16.947Z,64.4
2018-10-03T11:58:17.210Z,65.0
2018-10-03T11:59:16.490Z,64.9
2018-10-03T12:00:16.786Z,65.7
2018-10-03T12:01:16.829Z,65.8
2018-10-03T12:02:17.100Z,66.6
2018-10-03T12:03:16.680Z,66.3
2018-10-03T12:04:17.038Z,66.0
2018-10-03T12:05:16.319Z,66.4
2018-10-03T12:06:16.589Z,66.0
2018-10-03T12:07:16.855Z,65.6
2018-10-03T12:08:17.121Z,65.7
2018-10-03T12:09:16.521Z,65.9
2018-10-03T12:10:16.879Z,65.8
2018-10-03T12:11:16.917Z,66.2
2018-10-03T12:12:17.189Z,66.3
2018-10-03T12:13:16.465Z,66.5
2018-10-03T12:14:16.733Z,66.5
2018-10-03T12:15:17.006Z,66.2
2018-10-03T12:16:16.280Z,66.3
2018-10-03T12:17:16.550Z,67.1
2018-10-03T12:18:16.816Z,66.1
2018-10-03T12:19:17.094Z,65.5
2018-10-03T12:20:16.373Z,65.9
2018-10-03T12:21:16.411Z,65.7
2018-10-03T12:22:16.692Z,65.0
2018-10-03T12:23:16.955Z,66.1
2018-10-03T12:24:17.220Z,64.4
2018-10-03T12:25:16.735Z,63.8
2018-10-03T12:26:17.164Z,63.0
2018-10-03T12:27:16.441Z,62.7
2018-10-03T12:28:16.720Z,62.8
2018-10-03T12:29:16.986Z,62.5
2018-10-03T12:30:17.584Z,63.2
2018-10-03T12:31:16.325Z,63.3
2018-10-03T12:32:16.602Z,63.1
2018-10-03T12:33:17.049Z,61.3
2018-10-03T12:34:16.344Z,61.3
2018-10-03T12:35:17.022Z,60.3
2018-10-03T12:36:16.313Z,59.2
2018-10-03T12:37:16.593Z,59.3
2018-10-03T12:38:16.871Z,59.2
2018-10-03T12:39:17.138Z,59.2
2018-10-03T12:40:16.432Z,57.8
2018-10-03T12:41:16.458Z,58.3
2018-10-03T12:42:16.719Z,58.2
2018-10-03T12:43:16.987Z,58.8
2018-10-03T12:44:17.255Z,59.1
2018-10-03T12:45:16.534Z,59.3
2018-10-03T12:46:16.808Z,59.3
2018-10-03T12:47:17.076Z,59.1
2018-10-03T12:48:16.341Z,59.5
2018-10-03T12:49:16.613Z,59.1
2018-10-03T12:50:16.888Z,59.3
2018-10-03T12:51:16.925Z,59.2
2018-10-03T12:52:17.202Z,59.4
2018-10-03T12:53:16.468Z,59.6
2018-10-03T12:54:16.751Z,59.1
2018-10-03T12:55:17.025Z,59.3
2018-10-03T12:56:16.297Z,59.0
2018-10-03T12:57:16.573Z,58.4
2018-10-03T12:58:16.855Z,58.3
2018-10-03T12:59:17.120Z,57.8
2018-10-03T13:00:16.457Z,56.9
2018-10-03T13:01:16.836Z,56.8
2018-10-03T13:02:17.172Z,56.1
2018-10-03T13:03:16.452Z,54.3
2018-10-03T13:04:16.723Z,54.5
2018-10-03T13:05:16.997Z,54.6
2018-10-03T13:06:16.264Z,54.6
2018-10-03T13:07:16.544Z,54.6
2018-10-03T13:08:16.810Z,55.3
2018-10-03T13:09:17.083Z,54.1
2018-10-03T13:10:16.375Z,54.4
2018-10-03T13:11:16.399Z,55.1
2018-10-03T13:12:16.672Z,55.9
2018-10-03T13:13:16.955Z,57.1
2018-10-03T13:14:17.224Z,57.5
2018-10-03T13:15:16.495Z,57.9
2018-10-03T13:16:16.763Z,58.2
2018-10-03T13:17:17.030Z,58.5
2018-10-03T13:18:16.295Z,58.5